sensor_id;sensor_type;location;lat;lon;timestamp;P1;durP1;ratioP1;P2;durP2;ratioP2
46781;SDS011;32541;46.298;11.506;2023-02-20T00:01:50;3.57;;;1.43;;
46781;SDS011;32541;46.298;11.506;2023-02-20T00:04:17;1.77;;;0.87;;
46781;SDS011;32541;46.298;11.506;2023-02-20T00:06:43;2.20;;;0.60;;
46781;SDS011;32541;46.298;11.506;2023-02-20T00:09:09;3.90;;;0.60;;
46781;SDS011;32541;46.298;11.506;2023-02-20T00:11:34;1.00;;;0.43;;
46781;SDS011;32541;46.298;11.506;2023-02-20T00:14:00;1.33;;;0.73;;
46781;SDS011;32541;46.298;11.506;2023-02-20T00:16:25;1.50;;;0.70;;
46781;SDS011;32541;46.298;11.506;2023-02-20T00:18:50;2.23;;;0.80;;
46781;SDS011;32541;46.298;11.506;2023-02-20T00:21:16;3.47;;;0.63;;
46781;SDS011;32541;46.298;11.506;2023-02-20T00:23:41;3.67;;;0.90;;
46781;SDS011;32541;46.298;11.506;2023-02-20T00:26:10;1.60;;;0.87;;
46781;SDS011;32541;46.298;11.506;2023-02-20T00:28:37;1.33;;;0.70;;
46781;SDS011;32541;46.298;11.506;2023-02-20T00:31:06;2.70;;;0.70;;
46781;SDS011;32541;46.298;11.506;2023-02-20T00:33:33;1.43;;;0.80;;
46781;SDS011;32541;46.298;11.506;2023-02-20T00:35:58;5.20;;;1.73;;
46781;SDS011;32541;46.298;11.506;2023-02-20T00:38:24;3.10;;;1.00;;
46781;SDS011;32541;46.298;11.506;2023-02-20T00:40:49;2.03;;;0.83;;
46781;SDS011;32541;46.298;11.506;2023-02-20T00:43:15;0.73;;;0.20;;
46781;SDS011;32541;46.298;11.506;2023-02-20T00:45:40;2.60;;;0.70;;
46781;SDS011;32541;46.298;11.506;2023-02-20T00:48:06;3.67;;;0.87;;
46781;SDS011;32541;46.298;11.506;2023-02-20T00:50:31;1.80;;;0.70;;
46781;SDS011;32541;46.298;11.506;2023-02-20T00:52:56;1.27;;;0.77;;
46781;SDS011;32541;46.298;11.506;2023-02-20T00:55:22;2.07;;;0.40;;
46781;SDS011;32541;46.298;11.506;2023-02-20T00:57:47;3.57;;;0.83;;
46781;SDS011;32541;46.298;11.506;2023-02-20T01:00:21;0.70;;;0.53;;
46781;SDS011;32541;46.298;11.506;2023-02-20T01:02:49;1.03;;;0.50;;
46781;SDS011;32541;46.298;11.506;2023-02-20T01:05:14;1.73;;;0.80;;
46781;SDS011;32541;46.298;11.506;2023-02-20T01:07:40;1.63;;;0.60;;
46781;SDS011;32541;46.298;11.506;2023-02-20T01:10:06;1.03;;;0.50;;
46781;SDS011;32541;46.298;11.506;2023-02-20T01:12:31;1.00;;;0.57;;
46781;SDS011;32541;46.298;11.506;2023-02-20T01:14:57;2.77;;;1.03;;
46781;SDS011;32541;46.298;11.506;2023-02-20T01:17:22;1.50;;;0.90;;
46781;SDS011;32541;46.298;11.506;2023-02-20T01:19:48;1.40;;;0.50;;
46781;SDS011;32541;46.298;11.506;2023-02-20T01:22:13;0.50;;;0.40;;
46781;SDS011;32541;46.298;11.506;2023-02-20T01:24:38;0.43;;;0.33;;
46781;SDS011;32541;46.298;11.506;2023-02-20T01:27:05;4.70;;;0.70;;
46781;SDS011;32541;46.298;11.506;2023-02-20T01:29:30;1.30;;;0.70;;
46781;SDS011;32541;46.298;11.506;2023-02-20T01:31:55;1.07;;;0.50;;
46781;SDS011;32541;46.298;11.506;2023-02-20T01:34:21;1.07;;;0.57;;
46781;SDS011;32541;46.298;11.506;2023-02-20T01:36:47;2.43;;;0.70;;
46781;SDS011;32541;46.298;11.506;2023-02-20T01:39:15;1.43;;;0.30;;
46781;SDS011;32541;46.298;11.506;2023-02-20T01:41:41;1.67;;;0.53;;
46781;SDS011;32541;46.298;11.506;2023-02-20T01:44:10;0.40;;;0.37;;
46781;SDS011;32541;46.298;11.506;2023-02-20T01:46:43;0.70;;;0.43;;
46781;SDS011;32541;46.298;11.506;2023-02-20T01:49:12;1.97;;;0.60;;
46781;SDS011;32541;46.298;11.506;2023-02-20T01:51:42;1.20;;;0.77;;
46781;SDS011;32541;46.298;11.506;2023-02-20T01:54:10;2.47;;;0.83;;
46781;SDS011;32541;46.298;11.506;2023-02-20T01:56:39;1.60;;;0.40;;
46781;SDS011;32541;46.298;11.506;2023-02-20T01:59:05;1.27;;;0.50;;
46781;SDS011;32541;46.298;11.506;2023-02-20T02:01:32;1.73;;;0.57;;
46781;SDS011;32541;46.298;11.506;2023-02-20T02:03:59;0.90;;;0.60;;
46781;SDS011;32541;46.298;11.506;2023-02-20T02:06:28;1.97;;;0.80;;
46781;SDS011;32541;46.298;11.506;2023-02-20T02:08:55;1.40;;;0.70;;
46781;SDS011;32541;46.298;11.506;2023-02-20T02:11:26;2.80;;;0.70;;
46781;SDS011;32541;46.298;11.506;2023-02-20T02:13:52;2.53;;;0.60;;
46781;SDS011;32541;46.298;11.506;2023-02-20T02:19:18;0.87;;;0.53;;
46781;SDS011;32541;46.298;11.506;2023-02-20T02:45:00;22.57;;;6.77;;
46781;SDS011;32541;46.298;11.506;2023-02-20T02:47:10;7.60;;;2.10;;
46781;SDS011;32541;46.298;11.506;2023-02-20T02:52:22;20.63;;;7.77;;
46781;SDS011;32541;46.298;11.506;2023-02-20T02:55:14;34.50;;;13.77;;
46781;SDS011;32541;46.298;11.506;2023-02-20T02:57:41;19.43;;;7.57;;
46781;SDS011;32541;46.298;11.506;2023-02-20T03:06:10;20.93;;;7.53;;
46781;SDS011;32541;46.298;11.506;2023-02-20T03:08:40;9.40;;;4.63;;
46781;SDS011;32541;46.298;11.506;2023-02-20T03:11:15;6.93;;;2.73;;
46781;SDS011;32541;46.298;11.506;2023-02-20T03:19:20;3.33;;;1.60;;
46781;SDS011;32541;46.298;11.506;2023-02-20T03:21:51;2.73;;;1.20;;
46781;SDS011;32541;46.298;11.506;2023-02-20T03:24:20;1.57;;;0.77;;
46781;SDS011;32541;46.298;11.506;2023-02-20T03:26:48;1.90;;;0.83;;
46781;SDS011;32541;46.298;11.506;2023-02-20T03:29:17;3.00;;;1.03;;
46781;SDS011;32541;46.298;11.506;2023-02-20T03:32:02;2.30;;;0.83;;
46781;SDS011;32541;46.298;11.506;2023-02-20T03:34:49;1.07;;;0.60;;
46781;SDS011;32541;46.298;11.506;2023-02-20T03:37:36;2.77;;;0.60;;
46781;SDS011;32541;46.298;11.506;2023-02-20T03:40:24;2.60;;;0.40;;
46781;SDS011;32541;46.298;11.506;2023-02-20T03:43:16;2.10;;;0.53;;
46781;SDS011;32541;46.298;11.506;2023-02-20T03:45:50;1.53;;;0.37;;
46781;SDS011;32541;46.298;11.506;2023-02-20T03:48:21;1.57;;;0.50;;
46781;SDS011;32541;46.298;11.506;2023-02-20T03:50:47;0.93;;;0.30;;
46781;SDS011;32541;46.298;11.506;2023-02-20T03:53:32;1.53;;;0.60;;
46781;SDS011;32541;46.298;11.506;2023-02-20T03:55:58;1.10;;;0.50;;
46781;SDS011;32541;46.298;11.506;2023-02-20T03:58:26;1.53;;;0.50;;
46781;SDS011;32541;46.298;11.506;2023-02-20T04:00:55;1.57;;;0.60;;
46781;SDS011;32541;46.298;11.506;2023-02-20T04:03:27;0.47;;;0.40;;
46781;SDS011;32541;46.298;11.506;2023-02-20T04:05:56;1.20;;;0.33;;
46781;SDS011;32541;46.298;11.506;2023-02-20T04:08:28;0.23;;;0.20;;
46781;SDS011;32541;46.298;11.506;2023-02-20T04:11:10;1.00;;;0.30;;
46781;SDS011;32541;46.298;11.506;2023-02-20T04:13:38;6.13;;;1.37;;
46781;SDS011;32541;46.298;11.506;2023-02-20T04:16:05;2.43;;;1.07;;
46781;SDS011;32541;46.298;11.506;2023-02-20T04:18:31;3.20;;;0.80;;
46781;SDS011;32541;46.298;11.506;2023-02-20T04:20:57;1.33;;;0.50;;
46781;SDS011;32541;46.298;11.506;2023-02-20T04:23:26;1.33;;;0.53;;
46781;SDS011;32541;46.298;11.506;2023-02-20T04:26:00;2.33;;;0.60;;
46781;SDS011;32541;46.298;11.506;2023-02-20T04:28:27;0.77;;;0.57;;
46781;SDS011;32541;46.298;11.506;2023-02-20T04:30:52;1.40;;;0.93;;
46781;SDS011;32541;46.298;11.506;2023-02-20T04:33:18;2.67;;;0.67;;
46781;SDS011;32541;46.298;11.506;2023-02-20T04:35:44;2.00;;;0.80;;
46781;SDS011;32541;46.298;11.506;2023-02-20T04:38:10;2.63;;;1.60;;
46781;SDS011;32541;46.298;11.506;2023-02-20T04:40:36;1.00;;;0.50;;
46781;SDS011;32541;46.298;11.506;2023-02-20T04:43:02;0.90;;;0.47;;
46781;SDS011;32541;46.298;11.506;2023-02-20T04:45:27;0.60;;;0.30;;
46781;SDS011;32541;46.298;11.506;2023-02-20T04:47:52;0.73;;;0.40;;
46781;SDS011;32541;46.298;11.506;2023-02-20T04:50:28;3.43;;;1.50;;
46781;SDS011;32541;46.298;11.506;2023-02-20T04:52:56;1.23;;;0.77;;
46781;SDS011;32541;46.298;11.506;2023-02-20T04:55:22;2.40;;;1.20;;
46781;SDS011;32541;46.298;11.506;2023-02-20T04:57:48;3.20;;;0.90;;
46781;SDS011;32541;46.298;11.506;2023-02-20T05:00:15;2.17;;;0.73;;
46781;SDS011;32541;46.298;11.506;2023-02-20T05:02:42;0.50;;;0.40;;
46781;SDS011;32541;46.298;11.506;2023-02-20T05:05:25;2.90;;;0.83;;
46781;SDS011;32541;46.298;11.506;2023-02-20T05:10:24;3.90;;;1.87;;
46781;SDS011;32541;46.298;11.506;2023-02-20T05:12:51;6.97;;;3.40;;
46781;SDS011;32541;46.298;11.506;2023-02-20T05:15:17;16.43;;;8.97;;
46781;SDS011;32541;46.298;11.506;2023-02-20T05:17:43;12.07;;;6.20;;
46781;SDS011;32541;46.298;11.506;2023-02-20T05:20:08;5.23;;;1.57;;
46781;SDS011;32541;46.298;11.506;2023-02-20T05:22:34;1.43;;;0.80;;
46781;SDS011;32541;46.298;11.506;2023-02-20T05:25:00;1.63;;;1.00;;
46781;SDS011;32541;46.298;11.506;2023-02-20T05:27:25;2.70;;;1.47;;
46781;SDS011;32541;46.298;11.506;2023-02-20T05:29:53;2.37;;;1.50;;
46781;SDS011;32541;46.298;11.506;2023-02-20T05:32:20;3.77;;;1.80;;
46781;SDS011;32541;46.298;11.506;2023-02-20T05:34:46;3.70;;;2.13;;
46781;SDS011;32541;46.298;11.506;2023-02-20T05:37:13;3.93;;;1.70;;
46781;SDS011;32541;46.298;11.506;2023-02-20T05:39:40;4.20;;;1.07;;
46781;SDS011;32541;46.298;11.506;2023-02-20T05:42:05;3.30;;;1.23;;
46781;SDS011;32541;46.298;11.506;2023-02-20T05:44:31;6.30;;;3.80;;
46781;SDS011;32541;46.298;11.506;2023-02-20T05:46:57;64.03;;;30.70;;
46781;SDS011;32541;46.298;11.506;2023-02-20T05:49:22;20.50;;;9.77;;
46781;SDS011;32541;46.298;11.506;2023-02-20T05:51:48;14.80;;;6.20;;
46781;SDS011;32541;46.298;11.506;2023-02-20T05:54:17;24.87;;;12.97;;
46781;SDS011;32541;46.298;11.506;2023-02-20T05:56:46;36.17;;;21.57;;
46781;SDS011;32541;46.298;11.506;2023-02-20T05:59:12;30.70;;;20.07;;
46781;SDS011;32541;46.298;11.506;2023-02-20T06:01:41;5.40;;;3.80;;
46781;SDS011;32541;46.298;11.506;2023-02-20T06:04:06;3.70;;;1.50;;
46781;SDS011;32541;46.298;11.506;2023-02-20T06:06:32;14.37;;;7.17;;
46781;SDS011;32541;46.298;11.506;2023-02-20T06:08:59;12.23;;;6.03;;
46781;SDS011;32541;46.298;11.506;2023-02-20T06:11:25;7.43;;;4.17;;
46781;SDS011;32541;46.298;11.506;2023-02-20T06:13:50;9.27;;;4.90;;
46781;SDS011;32541;46.298;11.506;2023-02-20T06:16:26;8.73;;;3.70;;
46781;SDS011;32541;46.298;11.506;2023-02-20T06:18:53;11.20;;;6.13;;
46781;SDS011;32541;46.298;11.506;2023-02-20T06:21:19;33.80;;;16.80;;
46781;SDS011;32541;46.298;11.506;2023-02-20T06:23:47;15.23;;;7.23;;
46781;SDS011;32541;46.298;11.506;2023-02-20T06:26:14;6.33;;;2.97;;
46781;SDS011;32541;46.298;11.506;2023-02-20T06:28:40;9.40;;;4.20;;
46781;SDS011;32541;46.298;11.506;2023-02-20T06:31:06;6.87;;;3.03;;
46781;SDS011;32541;46.298;11.506;2023-02-20T06:33:32;6.07;;;3.20;;
46781;SDS011;32541;46.298;11.506;2023-02-20T06:35:58;3.57;;;1.80;;
46781;SDS011;32541;46.298;11.506;2023-02-20T06:38:24;3.57;;;1.43;;
46781;SDS011;32541;46.298;11.506;2023-02-20T06:40:50;5.70;;;2.10;;
46781;SDS011;32541;46.298;11.506;2023-02-20T06:43:15;9.67;;;3.50;;
46781;SDS011;32541;46.298;11.506;2023-02-20T06:45:41;8.70;;;3.77;;
46781;SDS011;32541;46.298;11.506;2023-02-20T06:48:07;28.17;;;12.13;;
46781;SDS011;32541;46.298;11.506;2023-02-20T06:50:36;25.77;;;9.90;;
46781;SDS011;32541;46.298;11.506;2023-02-20T06:53:01;18.10;;;6.73;;
46781;SDS011;32541;46.298;11.506;2023-02-20T06:55:27;21.67;;;8.93;;
46781;SDS011;32541;46.298;11.506;2023-02-20T06:57:52;20.23;;;6.87;;
46781;SDS011;32541;46.298;11.506;2023-02-20T07:00:18;10.97;;;4.93;;
46781;SDS011;32541;46.298;11.506;2023-02-20T07:02:43;32.43;;;15.37;;
46781;SDS011;32541;46.298;11.506;2023-02-20T07:05:09;25.70;;;13.47;;
46781;SDS011;32541;46.298;11.506;2023-02-20T07:07:35;8.67;;;2.37;;
46781;SDS011;32541;46.298;11.506;2023-02-20T07:10:00;5.97;;;2.63;;
46781;SDS011;32541;46.298;11.506;2023-02-20T07:12:29;14.30;;;5.17;;
46781;SDS011;32541;46.298;11.506;2023-02-20T07:14:56;13.00;;;5.47;;
46781;SDS011;32541;46.298;11.506;2023-02-20T07:17:21;11.13;;;3.80;;
46781;SDS011;32541;46.298;11.506;2023-02-20T07:19:47;8.80;;;3.10;;
46781;SDS011;32541;46.298;11.506;2023-02-20T07:22:12;7.37;;;4.50;;
46781;SDS011;32541;46.298;11.506;2023-02-20T07:24:38;16.33;;;5.67;;
46781;SDS011;32541;46.298;11.506;2023-02-20T07:27:05;15.40;;;7.03;;
46781;SDS011;32541;46.298;11.506;2023-02-20T07:29:31;21.70;;;7.13;;
46781;SDS011;32541;46.298;11.506;2023-02-20T07:31:57;11.40;;;5.73;;
46781;SDS011;32541;46.298;11.506;2023-02-20T07:34:22;7.37;;;2.70;;
46781;SDS011;32541;46.298;11.506;2023-02-20T07:36:47;6.43;;;3.63;;
46781;SDS011;32541;46.298;11.506;2023-02-20T07:39:13;8.83;;;3.70;;
46781;SDS011;32541;46.298;11.506;2023-02-20T07:41:38;16.90;;;12.67;;
46781;SDS011;32541;46.298;11.506;2023-02-20T07:44:04;20.07;;;9.37;;
46781;SDS011;32541;46.298;11.506;2023-02-20T07:46:30;21.13;;;5.60;;
46781;SDS011;32541;46.298;11.506;2023-02-20T07:48:59;10.20;;;4.00;;
46781;SDS011;32541;46.298;11.506;2023-02-20T07:51:27;10.10;;;3.08;;
46781;SDS011;32541;46.298;11.506;2023-02-20T07:53:53;5.43;;;2.92;;
46781;SDS011;32541;46.298;11.506;2023-02-20T07:56:19;6.07;;;3.53;;
46781;SDS011;32541;46.298;11.506;2023-02-20T07:58:45;9.20;;;4.43;;
46781;SDS011;32541;46.298;11.506;2023-02-20T08:01:11;16.88;;;5.97;;
46781;SDS011;32541;46.298;11.506;2023-02-20T08:03:38;10.55;;;5.03;;
46781;SDS011;32541;46.298;11.506;2023-02-20T08:06:03;6.38;;;3.38;;
46781;SDS011;32541;46.298;11.506;2023-02-20T08:08:29;5.47;;;2.38;;
46781;SDS011;32541;46.298;11.506;2023-02-20T08:10:54;3.45;;;1.50;;
46781;SDS011;32541;46.298;11.506;2023-02-20T08:13:20;3.65;;;1.73;;
46781;SDS011;32541;46.298;11.506;2023-02-20T08:15:45;9.57;;;5.00;;
46781;SDS011;32541;46.298;11.506;2023-02-20T08:18:12;15.85;;;8.65;;
46781;SDS011;32541;46.298;11.506;2023-02-20T08:20:37;23.20;;;9.25;;
46781;SDS011;32541;46.298;11.506;2023-02-20T08:23:03;14.85;;;8.35;;
46781;SDS011;32541;46.298;11.506;2023-02-20T08:25:30;13.95;;;7.93;;
46781;SDS011;32541;46.298;11.506;2023-02-20T08:27:56;15.55;;;6.97;;
46781;SDS011;32541;46.298;11.506;2023-02-20T08:30:23;13.43;;;8.65;;
46781;SDS011;32541;46.298;11.506;2023-02-20T08:32:52;17.05;;;10.70;;
46781;SDS011;32541;46.298;11.506;2023-02-20T08:35:19;23.40;;;14.05;;
46781;SDS011;32541;46.298;11.506;2023-02-20T08:37:45;25.23;;;15.90;;
46781;SDS011;32541;46.298;11.506;2023-02-20T08:40:11;19.42;;;10.95;;
46781;SDS011;32541;46.298;11.506;2023-02-20T08:42:37;18.45;;;8.65;;
46781;SDS011;32541;46.298;11.506;2023-02-20T08:45:03;9.73;;;5.85;;
46781;SDS011;32541;46.298;11.506;2023-02-20T08:47:31;9.23;;;4.07;;
46781;SDS011;32541;46.298;11.506;2023-02-20T08:49:57;6.72;;;3.65;;
46781;SDS011;32541;46.298;11.506;2023-02-20T08:52:23;4.55;;;3.08;;
46781;SDS011;32541;46.298;11.506;2023-02-20T08:54:48;7.47;;;3.45;;
46781;SDS011;32541;46.298;11.506;2023-02-20T08:57:14;5.28;;;3.40;;
46781;SDS011;32541;46.298;11.506;2023-02-20T08:59:41;8.77;;;3.15;;
46781;SDS011;32541;46.298;11.506;2023-02-20T09:02:07;9.77;;;3.28;;
46781;SDS011;32541;46.298;11.506;2023-02-20T09:04:41;7.70;;;3.40;;
46781;SDS011;32541;46.298;11.506;2023-02-20T09:07:08;10.43;;;3.40;;
46781;SDS011;32541;46.298;11.506;2023-02-20T09:09:33;8.05;;;3.55;;
46781;SDS011;32541;46.298;11.506;2023-02-20T09:11:59;9.40;;;3.28;;
46781;SDS011;32541;46.298;11.506;2023-02-20T09:14:24;5.93;;;3.33;;
46781;SDS011;32541;46.298;11.506;2023-02-20T09:16:53;10.55;;;5.72;;
46781;SDS011;32541;46.298;11.506;2023-02-20T09:19:18;12.32;;;6.47;;
46781;SDS011;32541;46.298;11.506;2023-02-20T09:21:45;8.60;;;4.78;;
46781;SDS011;32541;46.298;11.506;2023-02-20T09:24:12;8.52;;;4.60;;
46781;SDS011;32541;46.298;11.506;2023-02-20T09:26:37;10.73;;;3.42;;
46781;SDS011;32541;46.298;11.506;2023-02-20T09:29:03;6.55;;;2.70;;
46781;SDS011;32541;46.298;11.506;2023-02-20T09:31:28;5.43;;;2.70;;
46781;SDS011;32541;46.298;11.506;2023-02-20T09:33:53;3.95;;;1.95;;
46781;SDS011;32541;46.298;11.506;2023-02-20T09:36:19;4.03;;;2.10;;
46781;SDS011;32541;46.298;11.506;2023-02-20T09:38:44;12.48;;;3.05;;
46781;SDS011;32541;46.298;11.506;2023-02-20T09:41:19;4.63;;;2.95;;
46781;SDS011;32541;46.298;11.506;2023-02-20T09:44:14;5.35;;;1.90;;
46781;SDS011;32541;46.298;11.506;2023-02-20T09:46:46;3.15;;;1.73;;
46781;SDS011;32541;46.298;11.506;2023-02-20T09:49:19;6.65;;;1.73;;
46781;SDS011;32541;46.298;11.506;2023-02-20T09:51:56;3.65;;;1.70;;
46781;SDS011;32541;46.298;11.506;2023-02-20T09:54:33;4.43;;;2.10;;
46781;SDS011;32541;46.298;11.506;2023-02-20T09:57:02;3.22;;;1.70;;
46781;SDS011;32541;46.298;11.506;2023-02-20T09:59:37;4.33;;;2.00;;
46781;SDS011;32541;46.298;11.506;2023-02-20T10:04:48;12.18;;;5.35;;
46781;SDS011;32541;46.298;11.506;2023-02-20T10:07:23;12.07;;;3.95;;
46781;SDS011;32541;46.298;11.506;2023-02-20T10:09:51;6.55;;;3.17;;
46781;SDS011;32541;46.298;11.506;2023-02-20T10:26:12;3.35;;;2.10;;
46781;SDS011;32541;46.298;11.506;2023-02-20T10:28:44;3.25;;;1.92;;
46781;SDS011;32541;46.298;11.506;2023-02-20T10:34:08;5.65;;;2.40;;
46781;SDS011;32541;46.298;11.506;2023-02-20T10:36:40;5.72;;;2.28;;
46781;SDS011;32541;46.298;11.506;2023-02-20T10:39:15;5.90;;;2.65;;
46781;SDS011;32541;46.298;11.506;2023-02-20T10:44:22;11.98;;;4.00;;
46781;SDS011;32541;46.298;11.506;2023-02-20T10:47:01;9.10;;;3.30;;
46781;SDS011;32541;46.298;11.506;2023-02-20T10:49:32;8.20;;;2.95;;
46781;SDS011;32541;46.298;11.506;2023-02-20T10:52:09;10.40;;;3.95;;
46781;SDS011;32541;46.298;11.506;2023-02-20T10:54:46;6.47;;;3.40;;
46781;SDS011;32541;46.298;11.506;2023-02-20T10:57:17;5.68;;;2.95;;
46781;SDS011;32541;46.298;11.506;2023-02-20T11:00:08;5.03;;;2.95;;
46781;SDS011;32541;46.298;11.506;2023-02-20T11:02:39;13.75;;;5.22;;
46781;SDS011;32541;46.298;11.506;2023-02-20T11:05:17;6.63;;;4.53;;
46781;SDS011;32541;46.298;11.506;2023-02-20T11:07:47;4.15;;;1.95;;
46781;SDS011;32541;46.298;11.506;2023-02-20T11:10:13;3.05;;;1.83;;
46781;SDS011;32541;46.298;11.506;2023-02-20T11:12:43;7.15;;;3.55;;
46781;SDS011;32541;46.298;11.506;2023-02-20T11:15:15;5.00;;;3.70;;
46781;SDS011;32541;46.298;11.506;2023-02-20T11:17:44;4.30;;;3.35;;
46781;SDS011;32541;46.298;11.506;2023-02-20T11:26:11;5.53;;;3.03;;
46781;SDS011;32541;46.298;11.506;2023-02-20T11:28:38;5.20;;;2.50;;
46781;SDS011;32541;46.298;11.506;2023-02-20T11:31:05;4.13;;;2.30;;
46781;SDS011;32541;46.298;11.506;2023-02-20T11:33:32;5.20;;;2.42;;
46781;SDS011;32541;46.298;11.506;2023-02-20T11:36:09;5.88;;;2.20;;
46781;SDS011;32541;46.298;11.506;2023-02-20T11:38:38;4.75;;;2.53;;
46781;SDS011;32541;46.298;11.506;2023-02-20T11:41:17;3.00;;;1.80;;
46781;SDS011;32541;46.298;11.506;2023-02-20T11:43:44;6.68;;;2.53;;
46781;SDS011;32541;46.298;11.506;2023-02-20T11:51:30;3.60;;;1.98;;
46781;SDS011;32541;46.298;11.506;2023-02-20T11:54:08;1.90;;;1.40;;
46781;SDS011;32541;46.298;11.506;2023-02-20T11:59:31;7.27;;;3.17;;
46781;SDS011;32541;46.298;11.506;2023-02-20T12:04:44;14.73;;;8.18;;
46781;SDS011;32541;46.298;11.506;2023-02-20T12:12:40;17.10;;;9.27;;
46781;SDS011;32541;46.298;11.506;2023-02-20T12:15:13;21.77;;;11.85;;
46781;SDS011;32541;46.298;11.506;2023-02-20T12:17:44;17.45;;;10.45;;
46781;SDS011;32541;46.298;11.506;2023-02-20T12:20:22;18.73;;;10.65;;
46781;SDS011;32541;46.298;11.506;2023-02-20T12:23:02;21.17;;;10.90;;
46781;SDS011;32541;46.298;11.506;2023-02-20T12:31:20;19.15;;;11.18;;
46781;SDS011;32541;46.298;11.506;2023-02-20T12:36:32;17.63;;;10.00;;
46781;SDS011;32541;46.298;11.506;2023-02-20T12:42:00;18.45;;;9.85;;
46781;SDS011;32541;46.298;11.506;2023-02-20T12:47:38;14.02;;;7.72;;
46781;SDS011;32541;46.298;11.506;2023-02-20T12:53:23;20.90;;;11.65;;
46781;SDS011;32541;46.298;11.506;2023-02-20T13:01:41;19.05;;;10.30;;
46781;SDS011;32541;46.298;11.506;2023-02-20T13:07:33;19.58;;;10.25;;
46781;SDS011;32541;46.298;11.506;2023-02-20T13:10:20;22.80;;;12.33;;
46781;SDS011;32541;46.298;11.506;2023-02-20T13:12:52;16.60;;;8.40;;
46781;SDS011;32541;46.298;11.506;2023-02-20T13:18:12;14.23;;;7.60;;
46781;SDS011;32541;46.298;11.506;2023-02-20T13:20:46;14.25;;;6.60;;
46781;SDS011;32541;46.298;11.506;2023-02-20T13:25:40;13.07;;;7.78;;
46781;SDS011;32541;46.298;11.506;2023-02-20T13:30:37;17.80;;;9.23;;
46781;SDS011;32541;46.298;11.506;2023-02-20T13:33:18;20.90;;;10.73;;
46781;SDS011;32541;46.298;11.506;2023-02-20T13:35:54;15.88;;;9.77;;
46781;SDS011;32541;46.298;11.506;2023-02-20T13:38:21;19.77;;;11.05;;
46781;SDS011;32541;46.298;11.506;2023-02-20T13:56:13;15.43;;;8.88;;
46781;SDS011;32541;46.298;11.506;2023-02-20T13:58:40;14.77;;;7.88;;
46781;SDS011;32541;46.298;11.506;2023-02-20T14:01:05;16.85;;;9.55;;
46781;SDS011;32541;46.298;11.506;2023-02-20T14:03:32;18.20;;;10.52;;
46781;SDS011;32541;46.298;11.506;2023-02-20T14:06:15;15.55;;;9.68;;
46781;SDS011;32541;46.298;11.506;2023-02-20T14:08:42;18.27;;;10.02;;
46781;SDS011;32541;46.298;11.506;2023-02-20T14:11:10;20.83;;;12.10;;
46781;SDS011;32541;46.298;11.506;2023-02-20T14:13:48;16.58;;;11.50;;
46781;SDS011;32541;46.298;11.506;2023-02-20T14:18:55;18.92;;;9.25;;
46781;SDS011;32541;46.298;11.506;2023-02-20T14:21:24;15.15;;;7.47;;
46781;SDS011;32541;46.298;11.506;2023-02-20T14:23:51;38.88;;;21.85;;
46781;SDS011;32541;46.298;11.506;2023-02-20T14:28:43;13.02;;;7.70;;
46781;SDS011;32541;46.298;11.506;2023-02-20T14:31:18;13.73;;;7.70;;
46781;SDS011;32541;46.298;11.506;2023-02-20T14:34:06;15.98;;;6.95;;
46781;SDS011;32541;46.298;11.506;2023-02-20T14:41:59;10.18;;;4.68;;
46781;SDS011;32541;46.298;11.506;2023-02-20T14:44:26;7.63;;;4.10;;
46781;SDS011;32541;46.298;11.506;2023-02-20T14:46:54;4.68;;;2.90;;
46781;SDS011;32541;46.298;11.506;2023-02-20T14:49:27;5.85;;;2.97;;
46781;SDS011;32541;46.298;11.506;2023-02-20T14:54:37;7.50;;;3.55;;
46781;SDS011;32541;46.298;11.506;2023-02-20T14:57:04;6.88;;;4.07;;
46781;SDS011;32541;46.298;11.506;2023-02-20T15:04:50;9.80;;;3.55;;
46781;SDS011;32541;46.298;11.506;2023-02-20T15:07:18;8.25;;;4.22;;
46781;SDS011;32541;46.298;11.506;2023-02-20T15:09:47;7.72;;;4.53;;
46781;SDS011;32541;46.298;11.506;2023-02-20T15:12:22;10.15;;;3.67;;
46781;SDS011;32541;46.298;11.506;2023-02-20T15:14:59;9.02;;;4.50;;
46781;SDS011;32541;46.298;11.506;2023-02-20T15:17:28;9.95;;;4.32;;
46781;SDS011;32541;46.298;11.506;2023-02-20T15:19:56;10.70;;;3.85;;
46781;SDS011;32541;46.298;11.506;2023-02-20T15:25:10;9.23;;;5.75;;
46781;SDS011;32541;46.298;11.506;2023-02-20T15:27:39;9.30;;;5.53;;
46781;SDS011;32541;46.298;11.506;2023-02-20T15:30:24;7.60;;;4.57;;
46781;SDS011;32541;46.298;11.506;2023-02-20T15:32:50;6.45;;;3.75;;
46781;SDS011;32541;46.298;11.506;2023-02-20T15:35:17;6.25;;;3.40;;
46781;SDS011;32541;46.298;11.506;2023-02-20T15:37:48;7.20;;;3.95;;
46781;SDS011;32541;46.298;11.506;2023-02-20T15:40:24;8.15;;;3.58;;
46781;SDS011;32541;46.298;11.506;2023-02-20T15:42:55;6.97;;;3.33;;
46781;SDS011;32541;46.298;11.506;2023-02-20T15:45:22;6.82;;;4.65;;
46781;SDS011;32541;46.298;11.506;2023-02-20T15:47:49;10.73;;;5.88;;
46781;SDS011;32541;46.298;11.506;2023-02-20T15:50:16;10.00;;;5.30;;
46781;SDS011;32541;46.298;11.506;2023-02-20T15:52:42;9.05;;;5.63;;
46781;SDS011;32541;46.298;11.506;2023-02-20T15:55:14;12.23;;;6.75;;
46781;SDS011;32541;46.298;11.506;2023-02-20T15:57:43;12.97;;;7.43;;
46781;SDS011;32541;46.298;11.506;2023-02-20T16:00:16;13.65;;;8.23;;
46781;SDS011;32541;46.298;11.506;2023-02-20T16:02:51;14.15;;;7.25;;
46781;SDS011;32541;46.298;11.506;2023-02-20T16:05:17;19.05;;;8.32;;
46781;SDS011;32541;46.298;11.506;2023-02-20T16:07:43;19.40;;;7.72;;
46781;SDS011;32541;46.298;11.506;2023-02-20T16:10:09;14.10;;;7.40;;
46781;SDS011;32541;46.298;11.506;2023-02-20T16:12:36;12.88;;;6.97;;
46781;SDS011;32541;46.298;11.506;2023-02-20T16:15:03;16.15;;;8.77;;
46781;SDS011;32541;46.298;11.506;2023-02-20T16:17:31;12.38;;;7.50;;
46781;SDS011;32541;46.298;11.506;2023-02-20T16:19:58;13.98;;;6.75;;
46781;SDS011;32541;46.298;11.506;2023-02-20T16:22:24;21.33;;;8.18;;
46781;SDS011;32541;46.298;11.506;2023-02-20T16:24:49;14.90;;;7.60;;
46781;SDS011;32541;46.298;11.506;2023-02-20T16:27:22;8.57;;;4.90;;
46781;SDS011;32541;46.298;11.506;2023-02-20T16:29:50;7.60;;;5.78;;
46781;SDS011;32541;46.298;11.506;2023-02-20T16:32:17;9.40;;;6.20;;
46781;SDS011;32541;46.298;11.506;2023-02-20T16:34:45;9.73;;;5.30;;
46781;SDS011;32541;46.298;11.506;2023-02-20T16:37:12;9.93;;;5.57;;
46781;SDS011;32541;46.298;11.506;2023-02-20T16:39:38;14.70;;;8.07;;
46781;SDS011;32541;46.298;11.506;2023-02-20T16:44:50;11.98;;;6.60;;
46781;SDS011;32541;46.298;11.506;2023-02-20T16:47:19;16.70;;;9.27;;
46781;SDS011;32541;46.298;11.506;2023-02-20T16:49:47;36.67;;;19.40;;
46781;SDS011;32541;46.298;11.506;2023-02-20T16:52:14;41.80;;;22.55;;
46781;SDS011;32541;46.298;11.506;2023-02-20T16:55:00;15.40;;;9.27;;
46781;SDS011;32541;46.298;11.506;2023-02-20T16:57:27;13.43;;;6.72;;
46781;SDS011;32541;46.298;11.506;2023-02-20T16:59:54;24.85;;;13.65;;
46781;SDS011;32541;46.298;11.506;2023-02-20T17:02:23;35.38;;;19.83;;
46781;SDS011;32541;46.298;11.506;2023-02-20T17:04:54;33.55;;;19.85;;
46781;SDS011;32541;46.298;11.506;2023-02-20T17:07:20;21.27;;;14.77;;
46781;SDS011;32541;46.298;11.506;2023-02-20T17:09:46;24.40;;;13.40;;
46781;SDS011;32541;46.298;11.506;2023-02-20T17:12:12;22.48;;;12.50;;
46781;SDS011;32541;46.298;11.506;2023-02-20T17:14:40;26.27;;;15.50;;
46781;SDS011;32541;46.298;11.506;2023-02-20T17:17:05;36.03;;;20.27;;
46781;SDS011;32541;46.298;11.506;2023-02-20T17:19:31;26.90;;;13.18;;